Time;durP1;ratioP1;P1;durP2;ratioP2;P2;SDS_P1;SDS_P2;PMS_P1;PMS_P2;Temp;Humidity;BMP_temperature;BMP_pressure;BME280_temperature;BME280_humidity;BME280_pressure;Samples;Min_cycle;Max_cycle;Signal;HPM_P1;HPM_P2
2023/06/10 00:01:36;;;;;;;14.15;6.15;;;;;;;;;;7395719;19;20560;-66
2023/06/10 00:04:02;;;;;;;9.60;6.05;;;;;;;;;;7392868;19;20147;-66
2023/06/10 00:06:28;;;;;;;10.68;6.55;;;;;;;;;;7392850;19;20019;-65
2023/06/10 00:08:54;;;;;;;12.52;6.90;;;;;;;;;;7393014;19;20010;-66
2023/06/10 00:11:21;;;;;;;9.23;6.07;;;;;;;;;;7393625;19;20017;-65
2023/06/10 00:13:46;;;;;;;12.48;6.93;;;;;;;;;;7393581;19;20472;-66
2023/06/10 00:16:12;;;;;;;17.75;6.85;;;;;;;;;;7391151;19;20419;-65
2023/06/10 00:18:38;;;;;;;12.95;6.72;;;;;;;;;;7390709;19;20540;-65
2023/06/10 00:21:04;;;;;;;10.20;6.13;;;;;;;;;;7391192;19;20014;-66
2023/06/10 00:23:37;;;;;;;12.57;6.55;;;;;;;;;;7392528;19;20007;-66
2023/06/10 00:26:02;;;;;;;8.95;5.90;;;;;;;;;;7391157;19;20075;-65
2023/06/10 00:28:28;;;;;;;10.95;6.22;;;;;;;;;;7390287;19;20015;-65
2023/06/10 00:30:53;;;;;;;13.15;6.32;;;;;;;;;;7390948;19;20023;-66
2023/06/10 00:33:18;;;;;;;11.52;6.32;;;;;;;;;;7392602;19;19999;-66
2023/06/10 00:35:44;;;;;;;11.25;6.13;;;;;;;;;;7390895;19;19999;-66
2023/06/10 00:38:09;;;;;;;10.25;6.30;;;;;;;;;;7390478;19;20011;-66
2023/06/10 00:40:40;;;;;;;10.48;6.40;;;;;;;;;;7391535;19;20011;-66
2023/06/10 00:43:06;;;;;;;8.90;5.78;;;;;;;;;;7390577;19;20078;-66
2023/06/10 00:45:31;;;;;;;9.95;6.28;;;;;;;;;;7391570;19;20010;-66
2023/06/10 00:47:58;;;;;;;10.25;6.32;;;;;;;;;;7390236;19;20029;-66
2023/06/10 00:50:23;;;;;;;12.07;6.45;;;;;;;;;;7388261;19;20014;-65
2023/06/10 00:52:50;;;;;;;16.15;7.47;;;;;;;;;;7391322;19;20022;-66
2023/06/10 00:55:16;;;;;;;10.30;6.75;;;;;;;;;;7390517;19;20445;-66
2023/06/10 00:57:44;;;;;;;13.10;6.93;;;;;;;;;;7389831;19;20081;-66
2023/06/10 01:00:10;;;;;;;10.27;6.53;;;;;;;;;;7391270;19;20018;-66
2023/06/10 01:02:36;;;;;;;10.20;6.03;;;;;;;;;;7388743;19;20006;-65
2023/06/10 01:05:02;;;;;;;10.68;6.22;;;;;;;;;;7390301;19;20014;-66
2023/06/10 01:07:58;;;;;;;9.23;6.38;;;;;;;;;;7388424;19;20017;-65
2023/06/10 01:10:55;;;;;;;10.73;6.63;;;;;;;;;;7390415;19;20015;-66
2023/06/10 01:13:23;;;;;;;13.32;6.15;;;;;;;;;;7390009;19;20006;-66
2023/06/10 01:15:50;;;;;;;12.15;6.40;;;;;;;;;;7392654;19;20019;-66
2023/06/10 01:18:16;;;;;;;10.40;6.28;;;;;;;;;;7392988;19;20014;-66
2023/06/10 01:20:44;;;;;;;8.38;5.65;;;;;;;;;;7395208;19;20705;-66
2023/06/10 01:23:10;;;;;;;10.63;6.28;;;;;;;;;;7398446;19;20010;-66
2023/06/10 01:25:52;;;;;;;9.63;6.25;;;;;;;;;;7397063;19;20107;-65
2023/06/10 01:28:24;;;;;;;12.57;6.78;;;;;;;;;;7394365;19;20124;-66
2023/06/10 01:31:09;;;;;;;12.13;6.60;;;;;;;;;;7397750;19;20014;-65
2023/06/10 01:33:37;;;;;;;11.32;6.40;;;;;;;;;;7397366;19;20017;-65
2023/06/10 01:36:03;;;;;;;10.48;6.30;;;;;;;;;;7395012;19;20022;-66
2023/06/10 01:38:36;;;;;;;10.43;6.40;;;;;;;;;;7392073;19;20011;-66
2023/06/10 01:41:03;;;;;;;9.05;6.43;;;;;;;;;;7396917;19;20018;-66
2023/06/10 01:43:28;;;;;;;10.20;5.93;;;;;;;;;;7397083;19;20007;-66
2023/06/10 01:45:53;;;;;;;10.15;6.15;;;;;;;;;;7396162;19;20038;-66
2023/06/10 01:48:19;;;;;;;11.35;6.43;;;;;;;;;;7392327;19;20027;-66
2023/06/10 01:50:44;;;;;;;10.35;5.93;;;;;;;;;;7395771;19;20019;-65
2023/06/10 01:53:09;;;;;;;9.50;6.07;;;;;;;;;;7396492;19;20006;-66
2023/06/10 01:55:35;;;;;;;12.60;6.78;;;;;;;;;;7391418;19;20019;-67
2023/06/10 01:58:00;;;;;;;11.68;6.60;;;;;;;;;;7394816;19;20010;-66
2023/06/10 02:00:25;;;;;;;9.75;6.53;;;;;;;;;;7395977;19;20037;-65
2023/06/10 02:02:51;;;;;;;8.73;5.93;;;;;;;;;;7395441;19;20017;-66
2023/06/10 02:05:16;;;;;;;13.45;6.07;;;;;;;;;;7395965;19;20024;-66
2023/06/10 02:07:42;;;;;;;8.35;5.70;;;;;;;;;;7393714;19;20030;-67
2023/06/10 02:10:07;;;;;;;8.73;5.88;;;;;;;;;;7396208;19;20018;-66
2023/06/10 02:12:33;;;;;;;8.60;6.13;;;;;;;;;;7395919;19;20383;-67
2023/06/10 02:14:58;;;;;;;15.52;6.75;;;;;;;;;;7396659;19;20022;-65
2023/06/10 02:17:24;;;;;;;10.05;6.50;;;;;;;;;;7393488;19;20542;-65
2023/06/10 02:19:52;;;;;;;12.30;6.75;;;;;;;;;;7394602;19;20532;-65
2023/06/10 02:22:21;;;;;;;9.00;6.18;;;;;;;;;;7396879;19;20030;-67
2023/06/10 02:24:47;;;;;;;11.27;6.63;;;;;;;;;;7396727;19;20002;-65
2023/06/10 02:27:12;;;;;;;8.65;6.22;;;;;;;;;;7395089;19;20005;-66
2023/06/10 02:29:38;;;;;;;8.13;5.70;;;;;;;;;;7395818;19;20345;-66
2023/06/10 02:32:04;;;;;;;9.40;6.30;;;;;;;;;;7396228;19;20557;-67
2023/06/10 02:34:29;;;;;;;11.30;6.38;;;;;;;;;;7394487;19;19998;-65
2023/06/10 02:36:54;;;;;;;10.27;6.35;;;;;;;;;;7393481;19;20581;-67
2023/06/10 02:39:21;;;;;;;8.95;6.40;;;;;;;;;;7396385;19;20002;-66
2023/06/10 02:41:46;;;;;;;11.57;6.35;;;;;;;;;;7396407;19;20002;-66
2023/06/10 02:44:12;;;;;;;9.80;6.07;;;;;;;;;;7396822;19;20018;-65
2023/06/10 02:46:37;;;;;;;12.85;6.13;;;;;;;;;;7396277;19;20006;-66
2023/06/10 02:49:02;;;;;;;11.77;6.38;;;;;;;;;;7396083;19;20074;-66
2023/06/10 02:51:28;;;;;;;10.00;6.00;;;;;;;;;;7394660;19;20012;-66
2023/06/10 02:53:53;;;;;;;11.13;6.40;;;;;;;;;;7394839;19;20007;-66
2023/06/10 02:56:19;;;;;;;9.00;5.97;;;;;;;;;;7393893;19;20094;-66
2023/06/10 02:58:45;;;;;;;8.82;6.10;;;;;;;;;;7393772;19;20026;-66
2023/06/10 03:01:11;;;;;;;11.07;6.30;;;;;;;;;;7392383;19;20030;-66
2023/06/10 03:03:40;;;;;;;8.98;5.95;;;;;;;;;;7393835;19;20014;-66
2023/06/10 03:06:06;;;;;;;8.45;5.70;;;;;;;;;;7393677;19;20559;-66
2023/06/10 03:08:31;;;;;;;8.23;5.65;;;;;;;;;;7390150;19;20011;-66
2023/06/10 03:10:56;;;;;;;11.23;6.05;;;;;;;;;;7394091;19;20515;-66
2023/06/10 03:13:21;;;;;;;9.77;5.68;;;;;;;;;;7393985;19;20015;-66
2023/06/10 03:15:47;;;;;;;9.15;5.78;;;;;;;;;;7391726;19;20025;-66
2023/06/10 03:18:12;;;;;;;9.30;5.97;;;;;;;;;;7389716;19;20013;-66
2023/06/10 03:20:39;;;;;;;10.05;6.20;;;;;;;;;;7392262;19;20520;-66
2023/06/10 03:23:06;;;;;;;7.55;5.32;;;;;;;;;;7393009;19;20030;-66
2023/06/10 03:25:31;;;;;;;9.27;6.40;;;;;;;;;;7395072;19;20043;-66
2023/06/10 03:27:57;;;;;;;9.95;5.35;;;;;;;;;;7396928;19;20476;-66
2023/06/10 03:30:22;;;;;;;9.70;6.18;;;;;;;;;;7396629;19;20010;-66
2023/06/10 03:32:48;;;;;;;8.77;5.22;;;;;;;;;;7394788;19;20007;-66
2023/06/10 03:35:14;;;;;;;8.82;5.47;;;;;;;;;;7393191;19;20090;-66
2023/06/10 03:37:40;;;;;;;11.23;5.40;;;;;;;;;;7390726;19;20014;-66
2023/06/10 03:40:07;;;;;;;10.88;5.32;;;;;;;;;;7392612;19;20006;-67
2023/06/10 03:42:32;;;;;;;9.95;5.97;;;;;;;;;;7390961;19;20019;-67
2023/06/10 03:44:58;;;;;;;8.45;5.70;;;;;;;;;;7393422;19;20062;-67
2023/06/10 03:47:23;;;;;;;8.73;5.55;;;;;;;;;;7392465;19;20014;-67
2023/06/10 03:49:48;;;;;;;8.73;5.57;;;;;;;;;;7391984;19;20014;-67
2023/06/10 03:52:14;;;;;;;9.23;5.00;;;;;;;;;;7390256;19;20021;-67
2023/06/10 03:54:39;;;;;;;7.75;5.03;;;;;;;;;;7391985;19;20015;-67
2023/06/10 03:57:05;;;;;;;7.05;4.85;;;;;;;;;;7390942;19;20011;-67
2023/06/10 03:59:31;;;;;;;7.68;5.07;;;;;;;;;;7391421;19;20022;-66
2023/06/10 04:01:56;;;;;;;7.97;5.07;;;;;;;;;;7392326;19;20058;-66
2023/06/10 04:04:23;;;;;;;10.88;5.30;;;;;;;;;;7391994;19;20034;-66
2023/06/10 04:06:49;;;;;;;8.30;4.78;;;;;;;;;;7393273;19;20018;-66
2023/06/10 04:09:15;;;;;;;6.88;4.57;;;;;;;;;;7392437;19;20009;-66
2023/06/10 04:11:41;;;;;;;10.27;4.80;;;;;;;;;;7393261;19;20692;-67
2023/06/10 04:14:06;;;;;;;7.88;4.80;;;;;;;;;;7391891;19;20010;-66
2023/06/10 04:16:31;;;;;;;10.73;4.95;;;;;;;;;;7390314;19;20015;-67
2023/06/10 04:18:57;;;;;;;8.07;4.82;;;;;;;;;;7392789;19;20007;-66
2023/06/10 04:21:22;;;;;;;8.85;4.97;;;;;;;;;;7392609;19;20065;-66
2023/06/10 04:23:48;;;;;;;8.45;4.90;;;;;;;;;;7392806;19;20058;-67
2023/06/10 04:26:14;;;;;;;8.00;4.97;;;;;;;;;;7393757;19;20009;-65
2023/06/10 04:28:39;;;;;;;6.88;4.30;;;;;;;;;;7393531;19;20006;-65
2023/06/10 04:31:04;;;;;;;10.30;5.38;;;;;;;;;;7393043;19;20019;-65
2023/06/10 04:33:31;;;;;;;7.45;4.40;;;;;;;;;;7393463;19;20019;-65
2023/06/10 04:35:57;;;;;;;9.52;4.90;;;;;;;;;;7393383;19;20018;-65
2023/06/10 04:38:22;;;;;;;8.77;4.95;;;;;;;;;;7390984;19;20006;-66
2023/06/10 04:40:48;;;;;;;8.35;4.63;;;;;;;;;;7392144;19;20037;-66
2023/06/10 04:43:13;;;;;;;7.75;4.63;;;;;;;;;;7392113;19;20070;-65
2023/06/10 04:45:39;;;;;;;7.45;4.85;;;;;;;;;;7392155;19;20018;-65
2023/06/10 04:48:04;;;;;;;9.48;4.75;;;;;;;;;;7387828;19;20003;-65
2023/06/10 04:50:30;;;;;;;9.18;4.90;;;;;;;;;;7386182;19;19998;-65
2023/06/10 04:52:57;;;;;;;5.75;4.25;;;;;;;;;;7387325;19;19994;-65
2023/06/10 04:55:22;;;;;;;7.63;4.90;;;;;;;;;;7387688;19;20389;-66
2023/06/10 04:57:48;;;;;;;8.40;4.75;;;;;;;;;;7379657;19;20010;-65
2023/06/10 05:00:14;;;;;;;6.72;4.50;;;;;;;;;;7386603;19;20481;-65
2023/06/10 05:02:39;;;;;;;7.80;4.93;;;;;;;;;;7390693;19;20002;-66
2023/06/10 05:05:05;;;;;;;10.13;4.88;;;;;;;;;;7391939;19;20113;-66
2023/06/10 05:07:31;;;;;;;9.77;4.85;;;;;;;;;;7388625;19;20107;-65
2023/06/10 05:09:56;;;;;;;9.52;4.88;;;;;;;;;;7390409;19;20030;-65
2023/06/10 05:12:22;;;;;;;12.13;5.43;;;;;;;;;;7388537;19;20017;-65
2023/06/10 05:14:47;;;;;;;8.60;4.53;;;;;;;;;;7388093;19;20014;-66
2023/06/10 05:17:13;;;;;;;9.82;5.15;;;;;;;;;;7387407;19;20552;-65
2023/06/10 05:19:38;;;;;;;8.23;4.45;;;;;;;;;;7388918;19;20481;-67
2023/06/10 05:22:04;;;;;;;7.85;4.50;;;;;;;;;;7386768;19;20098;-65
2023/06/10 05:24:29;;;;;;;10.82;5.10;;;;;;;;;;7388169;19;20002;-65
2023/06/10 05:26:54;;;;;;;8.25;4.70;;;;;;;;;;7388758;19;20010;-64
2023/06/10 05:29:20;;;;;;;8.68;4.80;;;;;;;;;;7389549;19;19998;-64
2023/06/10 05:31:45;;;;;;;7.80;4.32;;;;;;;;;;7389924;19;20010;-65
2023/06/10 05:34:10;;;;;;;9.77;4.60;;;;;;;;;;7389436;19;19998;-65
2023/06/10 05:36:36;;;;;;;12.13;4.93;;;;;;;;;;7389536;19;20006;-65
2023/06/10 05:39:02;;;;;;;8.02;4.25;;;;;;;;;;7387862;19;20590;-64
2023/06/10 05:41:27;;;;;;;8.02;4.53;;;;;;;;;;7388134;19;20014;-64
2023/06/10 05:43:53;;;;;;;8.60;4.47;;;;;;;;;;7388104;19;20014;-66
2023/06/10 05:46:19;;;;;;;8.83;4.57;;;;;;;;;;7392234;19;20410;-65
2023/06/10 05:48:45;;;;;;;6.70;4.45;;;;;;;;;;7388867;19;20279;-66
2023/06/10 05:51:10;;;;;;;7.47;3.78;;;;;;;;;;7387368;19;20014;-66
2023/06/10 05:53:35;;;;;;;8.50;4.65;;;;;;;;;;7395769;19;20027;-66
2023/06/10 05:56:01;;;;;;;11.00;4.65;;;;;;;;;;7393159;19;20560;-66
2023/06/10 05:58:26;;;;;;;7.25;4.00;;;;;;;;;;7389453;19;20014;-66
2023/06/10 06:00:51;;;;;;;7.13;4.55;;;;;;;;;;7391353;19;20002;-66
2023/06/10 06:03:17;;;;;;;7.72;4.80;;;;;;;;;;7399077;19;20014;-65
2023/06/10 06:05:42;;;;;;;7.93;4.78;;;;;;;;;;7397828;19;20002;-65
2023/06/10 06:08:08;;;;;;;9.68;4.70;;;;;;;;;;7395949;19;20440;-65
2023/06/10 06:10:40;;;;;;;8.00;4.82;;;;;;;;;;7399441;19;20007;-66
2023/06/10 06:13:05;;;;;;;7.53;4.32;;;;;;;;;;7400430;19;20495;-64
2023/06/10 06:15:30;;;;;;;9.25;4.80;;;;;;;;;;7399778;19;20017;-65
2023/06/10 06:17:55;;;;;;;18.20;8.05;;;;;;;;;;7397581;19;20014;-65
2023/06/10 06:20:22;;;;;;;10.20;5.72;;;;;;;;;;7402427;19;20250;-64
2023/06/10 06:22:47;;;;;;;11.70;6.38;;;;;;;;;;7404005;19;20010;-66
2023/06/10 06:25:13;;;;;;;11.35;7.18;;;;;;;;;;7405223;19;19995;-65
2023/06/10 06:27:39;;;;;;;8.13;5.13;;;;;;;;;;7398428;19;20007;-65
2023/06/10 06:30:05;;;;;;;10.23;5.65;;;;;;;;;;7400989;19;20019;-64
2023/06/10 06:32:30;;;;;;;12.85;5.40;;;;;;;;;;7401166;19;20066;-64
2023/06/10 06:34:56;;;;;;;8.15;4.90;;;;;;;;;;7401239;19;20354;-65
2023/06/10 06:37:25;;;;;;;8.32;4.75;;;;;;;;;;7398384;19;20114;-65
2023/06/10 06:39:51;;;;;;;9.07;4.80;;;;;;;;;;7399974;19;20017;-65
2023/06/10 06:42:17;;;;;;;8.02;4.50;;;;;;;;;;7400396;19;20018;-66
2023/06/10 06:44:43;;;;;;;8.18;4.70;;;;;;;;;;7399232;19;20081;-65
2023/06/10 06:47:08;;;;;;;9.43;5.00;;;;;;;;;;7399308;19;20010;-66
2023/06/10 06:49:33;;;;;;;10.02;4.57;;;;;;;;;;7398865;19;20018;-65
2023/06/10 06:51:59;;;;;;;8.73;4.85;;;;;;;;;;7399684;19;20014;-65
2023/06/10 06:54:24;;;;;;;6.95;4.85;;;;;;;;;;7402645;19;20026;-65
2023/06/10 06:56:50;;;;;;;8.25;4.63;;;;;;;;;;7398216;19;20496;-66
2023/06/10 06:59:17;;;;;;;7.20;5.10;;;;;;;;;;7397900;19;20481;-66
2023/06/10 07:01:42;;;;;;;7.57;4.88;;;;;;;;;;7398062;19;20014;-66
2023/06/10 07:04:08;;;;;;;10.35;4.88;;;;;;;;;;7400163;19;20007;-66
2023/06/10 07:06:33;;;;;;;8.30;4.60;;;;;;;;;;7406347;19;20496;-66
2023/06/10 07:08:58;;;;;;;7.40;4.30;;;;;;;;;;7411200;19;20010;-66
2023/06/10 07:11:23;;;;;;;7.68;4.50;;;;;;;;;;7412973;19;20013;-66
2023/06/10 07:13:49;;;;;;;8.38;5.10;;;;;;;;;;7408366;19;20038;-65
2023/06/10 07:16:14;;;;;;;7.35;4.78;;;;;;;;;;7409766;19;20094;-65
2023/06/10 07:18:40;;;;;;;7.15;4.22;;;;;;;;;;7407411;19;20009;-65
2023/06/10 07:21:05;;;;;;;8.27;4.78;;;;;;;;;;7404337;19;20070;-65
2023/06/10 07:23:30;;;;;;;8.50;5.15;;;;;;;;;;7401543;19;20015;-65
2023/06/10 07:25:56;;;;;;;6.90;4.78;;;;;;;;;;7394646;19;20023;-65
2023/06/10 07:28:21;;;;;;;9.60;4.97;;;;;;;;;;7392994;19;20026;-65
2023/06/10 07:30:46;;;;;;;7.82;4.65;;;;;;;;;;7394606;19;20022;-65
2023/06/10 07:33:12;;;;;;;9.30;5.05;;;;;;;;;;7395236;19;20015;-66
2023/06/10 07:35:37;;;;;;;11.10;5.18;;;;;;;;;;7394328;19;20019;-66
2023/06/10 07:38:02;;;;;;;7.57;4.63;;;;;;;;;;7393573;19;20011;-66
2023/06/10 07:40:28;;;;;;;9.32;5.00;;;;;;;;;;7393915;19;20086;-66
2023/06/10 07:42:55;;;;;;;7.57;4.43;;;;;;;;;;7394750;19;20019;-65
2023/06/10 07:45:20;;;;;;;8.88;5.20;;;;;;;;;;7393665;19;20267;-65
2023/06/10 07:47:46;;;;;;;8.48;4.25;;;;;;;;;;7392270;19;20014;-66
2023/06/10 07:50:11;;;;;;;7.57;4.60;;;;;;;;;;7393546;19;20002;-65
2023/06/10 07:52:39;;;;;;;7.72;4.60;;;;;;;;;;7394955;19;20013;-66
2023/06/10 07:55:05;;;;;;;9.88;4.90;;;;;;;;;;7392808;19;20014;-65
2023/06/10 07:57:34;;;;;;;8.90;4.70;;;;;;;;;;7391896;19;20030;-66
2023/06/10 08:00:00;;;;;;;8.93;4.72;;;;;;;;;;7396300;19;20030;-65
2023/06/10 08:02:25;;;;;;;7.47;4.97;;;;;;;;;;7406275;19;20014;-65
2023/06/10 08:04:51;;;;;;;13.65;5.50;;;;;;;;;;7398289;19;20349;-65
2023/06/10 08:07:17;;;;;;;9.82;5.00;;;;;;;;;;7396514;19;20356;-65
2023/06/10 08:09:43;;;;;;;7.93;5.18;;;;;;;;;;7391495;19;20017;-66
2023/06/10 08:12:08;;;;;;;7.93;4.50;;;;;;;;;;7393729;19;20415;-65
2023/06/10 08:14:34;;;;;;;7.95;4.32;;;;;;;;;;7394308;19;20070;-65
2023/06/10 08:16:59;;;;;;;9.20;5.38;;;;;;;;;;7391525;19;20488;-65
2023/06/10 08:19:25;;;;;;;8.93;4.93;;;;;;;;;;7391896;19;20073;-65
2023/06/10 08:21:50;;;;;;;6.65;4.90;;;;;;;;;;7392197;19;20013;-66
2023/06/10 08:24:17;;;;;;;9.10;4.90;;;;;;;;;;7390622;19;20009;-66
2023/06/10 08:26:43;;;;;;;7.57;5.15;;;;;;;;;;7391979;19;20393;-65
2023/06/10 08:29:08;;;;;;;7.38;4.75;;;;;;;;;;7389794;19;20018;-66
2023/06/10 08:31:33;;;;;;;11.63;5.30;;;;;;;;;;7391302;19;20017;-66
2023/06/10 08:33:59;;;;;;;8.77;5.00;;;;;;;;;;7392234;19;20009;-65
2023/06/10 08:36:24;;;;;;;8.02;5.07;;;;;;;;;;7392276;19;20010;-65
2023/06/10 08:38:49;;;;;;;8.55;4.63;;;;;;;;;;7388387;19;20531;-65
2023/06/10 08:41:17;;;;;;;9.88;5.05;;;;;;;;;;7393305;19;19995;-66
2023/06/10 08:43:53;;;;;;;7.93;4.93;;;;;;;;;;7391232;19;20044;-66
2023/06/10 08:46:19;;;;;;;11.77;5.00;;;;;;;;;;7389888;19;20473;-65
2023/06/10 08:48:48;;;;;;;8.90;5.00;;;;;;;;;;7390396;19;20042;-65
2023/06/10 08:51:16;;;;;;;8.88;4.80;;;;;;;;;;7388820;19;20010;-66
2023/06/10 08:53:50;;;;;;;8.25;5.00;;;;;;;;;;7388832;19;20019;-66
2023/06/10 08:56:16;;;;;;;9.63;5.50;;;;;;;;;;7389447;19;20026;-66
2023/06/10 08:58:43;;;;;;;8.13;5.00;;;;;;;;;;7388518;19;20484;-65
2023/06/10 09:01:09;;;;;;;9.23;5.35;;;;;;;;;;7388043;19;20397;-66
2023/06/10 09:03:37;;;;;;;9.10;5.22;;;;;;;;;;7385830;19;20082;-66
2023/06/10 09:06:04;;;;;;;10.63;4.90;;;;;;;;;;7385350;19;20665;-66
2023/06/10 09:08:31;;;;;;;9.15;4.75;;;;;;;;;;7385785;19;20459;-65
2023/06/10 09:10:57;;;;;;;7.45;4.95;;;;;;;;;;7383456;19;20019;-66
2023/06/10 09:13:22;;;;;;;9.73;4.72;;;;;;;;;;7383054;19;20018;-67
2023/06/10 09:15:49;;;;;;;9.07;5.03;;;;;;;;;;7383599;19;20011;-66
2023/06/10 09:18:14;;;;;;;10.18;5.18;;;;;;;;;;7387301;19;20050;-66
2023/06/10 09:20:41;;;;;;;8.82;5.25;;;;;;;;;;7384789;19;20035;-65
2023/06/10 09:23:07;;;;;;;8.50;4.88;;;;;;;;;;7384737;19;20014;-67
2023/06/10 09:25:37;;;;;;;7.07;4.50;;;;;;;;;;7383792;19;20377;-68
2023/06/10 09:28:03;;;;;;;7.22;5.03;;;;;;;;;;7385265;19;20555;-68
2023/06/10 09:30:34;;;;;;;13.93;4.70;;;;;;;;;;7386742;19;20014;-67
2023/06/10 09:33:02;;;;;;;7.88;4.88;;;;;;;;;;7386671;19;20030;-67
2023/06/10 09:35:30;;;;;;;9.35;4.68;;;;;;;;;;7387857;19;20119;-67
2023/06/10 09:37:57;;;;;;;9.48;4.93;;;;;;;;;;7390224;19;20014;-66
2023/06/10 09:40:22;;;;;;;6.68;4.43;;;;;;;;;;7393783;19;20015;-67
2023/06/10 09:42:55;;;;;;;9.70;4.63;;;;;;;;;;7392480;19;20357;-67
2023/06/10 09:45:21;;;;;;;6.32;4.68;;;;;;;;;;7394136;19;20406;-67
2023/06/10 09:47:47;;;;;;;6.75;4.45;;;;;;;;;;7391186;19;20024;-70
2023/06/10 09:50:13;;;;;;;8.57;5.30;;;;;;;;;;7397358;19;20006;-65
2023/06/10 09:52:39;;;;;;;6.78;4.85;;;;;;;;;;7396297;19;20018;-66
2023/06/10 09:55:08;;;;;;;6.97;4.80;;;;;;;;;;7398205;19;20036;-67
2023/06/10 09:57:33;;;;;;;6.38;4.45;;;;;;;;;;7390846;19;20033;-67
2023/06/10 09:59:59;;;;;;;7.78;4.85;;;;;;;;;;7396453;19;20007;-68
2023/06/10 10:02:24;;;;;;;9.38;4.95;;;;;;;;;;7397165;19;20022;-68
2023/06/10 10:04:50;;;;;;;8.52;4.90;;;;;;;;;;7394908;19;20014;-66
2023/06/10 10:07:15;;;;;;;8.85;4.80;;;;;;;;;;7392096;19;20070;-67
2023/06/10 10:09:42;;;;;;;6.55;4.65;;;;;;;;;;7390334;19;20412;-67
2023/06/10 10:12:14;;;;;;;7.20;4.28;;;;;;;;;;7394051;19;20018;-68
2023/06/10 10:14:45;;;;;;;10.23;4.28;;;;;;;;;;7393789;19;20018;-67
2023/06/10 10:17:11;;;;;;;6.78;4.07;;;;;;;;;;7394317;19;20045;-68
2023/06/10 10:19:53;;;;;;;6.18;4.30;;;;;;;;;;7393852;19;20356;-67
2023/06/10 10:22:31;;;;;;;7.03;4.15;;;;;;;;;;7391607;19;20015;-66
2023/06/10 10:24:59;;;;;;;6.75;4.38;;;;;;;;;;7392957;19;20022;-67
2023/06/10 10:27:30;;;;;;;6.32;4.47;;;;;;;;;;7393590;19;21259;-66
2023/06/10 10:29:58;;;;;;;6.35;4.53;;;;;;;;;;7393236;19;20476;-66
2023/06/10 10:32:48;;;;;;;5.95;4.20;;;;;;;;;;7393142;19;20014;-66
2023/06/10 10:35:21;;;;;;;6.78;4.15;;;;;;;;;;7394075;19;20015;-67
2023/06/10 10:37:47;;;;;;;5.78;4.18;;;;;;;;;;7390960;19;20006;-66
2023/06/10 10:40:14;;;;;;;7.93;4.18;;;;;;;;;;7392574;19;20011;-66
2023/06/10 10:42:40;;;;;;;6.07;3.95;;;;;;;;;;7392276;19;20074;-66
2023/06/10 10:45:07;;;;;;;8.63;4.38;;;;;;;;;;7392828;19;20016;-66
2023/06/10 10:47:34;;;;;;;5.80;4.10;;;;;;;;;;7387858;19;20006;-66
2023/06/10 10:49:59;;;;;;;7.30;4.35;;;;;;;;;;7390812;19;20389;-65
2023/06/10 10:52:27;;;;;;;8.60;4.93;;;;;;;;;;7393547;19;20479;-65
2023/06/10 10:54:53;;;;;;;12.00;5.03;;;;;;;;;;7395493;19;20074;-65
2023/06/10 10:57:23;;;;;;;7.28;4.68;;;;;;;;;;7392567;19;20081;-71
2023/06/10 10:59:49;;;;;;;6.78;4.53;;;;;;;;;;7394773;19;20006;-71
2023/06/10 11:02:19;;;;;;;8.63;4.68;;;;;;;;;;7390740;19;20022;-71
2023/06/10 11:04:46;;;;;;;8.55;4.63;;;;;;;;;;7393445;19;20003;-71
2023/06/10 11:07:15;;;;;;;8.38;4.68;;;;;;;;;;7392555;19;20070;-71
2023/06/10 11:09:58;;;;;;;9.05;5.20;;;;;;;;;;7391667;19;20014;-70
2023/06/10 11:12:26;;;;;;;8.57;4.68;;;;;;;;;;7394363;19;20010;-70
2023/06/10 11:14:56;;;;;;;6.63;4.63;;;;;;;;;;7392286;19;20639;-70
2023/06/10 11:17:21;;;;;;;7.13;4.03;;;;;;;;;;7388755;19;20007;-70
2023/06/10 11:19:47;;;;;;;7.88;4.40;;;;;;;;;;7391233;19;19998;-71
2023/06/10 11:22:17;;;;;;;8.57;5.10;;;;;;;;;;7394876;19;20007;-70
2023/06/10 11:24:50;;;;;;;6.75;4.38;;;;;;;;;;7396336;19;20235;-70
2023/06/10 11:27:24;;;;;;;8.32;4.70;;;;;;;;;;7394264;19;20482;-70
2023/06/10 11:30:01;;;;;;;7.43;4.80;;;;;;;;;;7394519;19;20014;-71
2023/06/10 11:32:31;;;;;;;5.93;4.45;;;;;;;;;;7394790;19;20002;-71
2023/06/10 11:34:57;;;;;;;10.80;4.88;;;;;;;;;;7394714;19;20006;-70
2023/06/10 11:37:22;;;;;;;8.68;5.00;;;;;;;;;;7395732;19;19995;-71
2023/06/10 11:39:52;;;;;;;6.25;4.60;;;;;;;;;;7398119;19;20018;-71
2023/06/10 11:42:18;;;;;;;5.78;4.28;;;;;;;;;;7396816;19;20007;-71
2023/06/10 11:44:49;;;;;;;8.30;4.43;;;;;;;;;;7396165;19;20458;-71
2023/06/10 11:47:14;;;;;;;7.75;4.53;;;;;;;;;;7394892;19;20007;-71
2023/06/10 11:49:40;;;;;;;9.85;4.10;;;;;;;;;;7395465;19;20379;-71
2023/06/10 11:52:05;;;;;;;6.63;4.22;;;;;;;;;;7395344;19;20003;-72
2023/06/10 11:54:31;;;;;;;6.18;4.20;;;;;;;;;;7392669;19;20026;-71
2023/06/10 11:57:00;;;;;;;15.27;5.27;;;;;;;;;;7392922;19;20018;-71
2023/06/10 11:59:29;;;;;;;7.45;4.57;;;;;;;;;;7393738;19;20289;-71
2023/06/10 12:01:55;;;;;;;6.97;4.90;;;;;;;;;;7393282;19;20003;-71
2023/06/10 12:04:22;;;;;;;8.73;4.25;;;;;;;;;;7394519;19;20017;-71
2023/06/10 12:06:49;;;;;;;8.10;4.32;;;;;;;;;;7393674;19;20011;-71
2023/06/10 12:09:23;;;;;;;7.90;4.20;;;;;;;;;;7393985;19;20217;-70
2023/06/10 12:11:59;;;;;;;7.65;4.40;;;;;;;;;;7392258;19;20011;-70
2023/06/10 12:14:58;;;;;;;6.30;3.75;;;;;;;;;;7392044;19;20014;-70
2023/06/10 12:17:29;;;;;;;8.88;5.30;;;;;;;;;;7387845;19;20086;-71
2023/06/10 12:19:55;;;;;;;7.03;3.97;;;;;;;;;;7388104;19;20085;-71
2023/06/10 12:22:21;;;;;;;5.55;3.78;;;;;;;;;;7390069;19;20014;-71
2023/06/10 12:25:01;;;;;;;5.47;3.70;;;;;;;;;;7393595;19;19999;-72
2023/06/10 12:27:29;;;;;;;5.50;3.70;;;;;;;;;;7389048;19;20006;-71
2023/06/10 12:29:55;;;;;;;6.03;3.55;;;;;;;;;;7390387;19;20501;-72
2023/06/10 12:32:26;;;;;;;6.63;3.85;;;;;;;;;;7392076;19;20010;-71
2023/06/10 12:35:03;;;;;;;6.57;3.42;;;;;;;;;;7393484;19;20006;-71
2023/06/10 12:37:33;;;;;;;8.30;3.55;;;;;;;;;;7390079;19;20021;-70
2023/06/10 12:40:01;;;;;;;6.22;3.65;;;;;;;;;;7392209;19;19998;-71
2023/06/10 12:42:26;;;;;;;4.80;3.38;;;;;;;;;;7393474;19;19998;-70
2023/06/10 12:44:56;;;;;;;6.57;3.80;;;;;;;;;;7395294;19;20017;-70
2023/06/10 12:47:31;;;;;;;7.30;4.13;;;;;;;;;;7390854;19;20010;-71
2023/06/10 12:49:56;;;;;;;5.43;3.78;;;;;;;;;;7390944;19;20007;-71
2023/06/10 12:52:22;;;;;;;6.90;3.63;;;;;;;;;;7391074;19;20497;-71
2023/06/10 12:54:47;;;;;;;5.47;3.87;;;;;;;;;;7392905;19;20326;-71
2023/06/10 12:57:12;;;;;;;6.28;3.88;;;;;;;;;;7391726;19;20273;-71
2023/06/10 12:59:38;;;;;;;5.70;3.97;;;;;;;;;;7389766;19;20014;-70
2023/06/10 13:02:03;;;;;;;7.55;3.80;;;;;;;;;;7389771;19;20030;-71
2023/06/10 13:04:28;;;;;;;7.20;3.88;;;;;;;;;;7391947;19;20014;-71
2023/06/10 13:06:54;;;;;;;7.93;4.20;;;;;;;;;;7387359;19;20479;-71
2023/06/10 13:09:19;;;;;;;5.83;3.57;;;;;;;;;;7389073;19;20018;-71
2023/06/10 13:11:44;;;;;;;8.30;3.85;;;;;;;;;;7387986;19;20285;-71
2023/06/10 13:14:10;;;;;;;8.30;4.10;;;;;;;;;;7391238;19;20063;-70
2023/06/10 13:16:37;;;;;;;7.45;3.50;;;;;;;;;;7391329;19;20007;-71
2023/06/10 13:19:05;;;;;;;9.00;3.90;;;;;;;;;;7392924;19;20010;-71
2023/06/10 13:21:30;;;;;;;8.20;3.95;;;;;;;;;;7391475;19;20010;-71
2023/06/10 13:23:55;;;;;;;5.85;3.10;;;;;;;;;;7393909;19;20011;-71
2023/06/10 13:26:21;;;;;;;7.90;4.00;;;;;;;;;;7394248;19;20006;-70
2023/06/10 13:28:47;;;;;;;5.82;3.95;;;;;;;;;;7392277;19;20264;-70
2023/06/10 13:31:12;;;;;;;6.25;3.95;;;;;;;;;;7391562;19;20062;-70
2023/06/10 13:33:38;;;;;;;8.93;3.97;;;;;;;;;;7390294;19;20097;-70
2023/06/10 13:36:03;;;;;;;5.20;3.55;;;;;;;;;;7392031;19;19999;-70
2023/06/10 13:38:29;;;;;;;5.72;4.13;;;;;;;;;;7389127;19;20003;-71
2023/06/10 13:40:54;;;;;;;6.53;3.95;;;;;;;;;;7391116;19;20034;-71
2023/06/10 13:43:19;;;;;;;8.35;4.60;;;;;;;;;;7391779;19;19999;-71
2023/06/10 13:45:45;;;;;;;7.25;4.28;;;;;;;;;;7389610;19;19999;-70
2023/06/10 13:48:10;;;;;;;5.80;3.38;;;;;;;;;;7389480;19;20040;-71
2023/06/10 13:50:37;;;;;;;7.38;4.40;;;;;;;;;;7389883;19;19998;-71
2023/06/10 13:53:02;;;;;;;7.07;4.40;;;;;;;;;;7390797;19;20030;-71
2023/06/10 13:55:28;;;;;;;7.78;3.95;;;;;;;;;;7390672;19;19999;-71
2023/06/10 13:57:53;;;;;;;7.37;3.80;;;;;;;;;;7387494;19;20476;-71
2023/06/10 14:00:18;;;;;;;5.22;3.58;;;;;;;;;;7383610;19;20247;-71
2023/06/10 14:02:44;;;;;;;8.95;4.05;;;;;;;;;;7387943;19;20014;-71
2023/06/10 14:05:10;;;;;;;8.30;4.03;;;;;;;;;;7388526;19;20406;-71
2023/06/10 14:07:37;;;;;;;6.57;4.05;;;;;;;;;;7386837;19;20353;-70
2023/06/10 14:10:02;;;;;;;9.13;4.70;;;;;;;;;;7389164;19;20026;-71
2023/06/10 14:12:27;;;;;;;7.72;4.32;;;;;;;;;;7389068;19;20006;-71
2023/06/10 14:14:53;;;;;;;5.73;3.83;;;;;;;;;;7389408;19;20434;-71
2023/06/10 14:17:18;;;;;;;5.40;3.72;;;;;;;;;;7387814;19;20285;-71
2023/06/10 14:19:43;;;;;;;6.30;3.67;;;;;;;;;;7386007;19;20023;-71
2023/06/10 14:22:09;;;;;;;8.55;4.30;;;;;;;;;;7389579;19;20007;-70
2023/06/10 14:24:38;;;;;;;9.07;4.40;;;;;;;;;;7394686;19;20349;-71
2023/06/10 14:27:03;;;;;;;5.93;3.80;;;;;;;;;;7393719;19;20120;-71
2023/06/10 14:29:29;;;;;;;6.18;3.80;;;;;;;;;;7394782;19;20030;-71
2023/06/10 14:31:57;;;;;;;8.43;4.03;;;;;;;;;;7397163;19;20027;-71
2023/06/10 14:34:28;;;;;;;6.32;4.25;;;;;;;;;;7395083;19;20014;-71
2023/06/10 14:36:53;;;;;;;7.53;4.43;;;;;;;;;;7395311;19;20750;-71
2023/06/10 14:39:18;;;;;;;5.65;3.80;;;;;;;;;;7396272;19;20002;-70